Terminal Aerodrome Forecast
Issued by NWS

Home | Current Version | Previous Version | Text Only | Print | Product List | Glossary On
Versions: 1 2 3 4 5 6 7 8 9 10 11 12 13 14
000
FTUS44 KOUN 260606 RRA
TAFWWR
TAF
KWWR 260606Z 2606/2706 34004KT P6SM SKC
     FM262200 34014G20KT P6SM BKN100
     FM270000 35015G22KT P6SM OVC100
     FM270400 35009KT P6SM SKC=

USA.gov is the U.S. government's official web portal to all federal, state and local government web resources and services.